createdAt,value
2019-03-24T00:09:27.064Z,8.50
2019-03-24T00:12:27.028Z,8.40
2019-03-24T00:15:35.984Z,8.40
2019-03-24T00:18:36.987Z,8.40
2019-03-24T00:21:38.231Z,8.40
2019-03-24T00:24:38.283Z,8.30
2019-03-24T00:27:47.185Z,8.20
2019-03-24T00:30:48.419Z,8.30
2019-03-24T00:33:49.707Z,8.10
2019-03-24T00:40:17.527Z,7.90
2019-03-24T00:43:18.003Z,7.80
2019-03-24T00:46:19.276Z,7.80
2019-03-24T00:49:18.801Z,7.90
2019-03-24T00:59:31.363Z,7.70
2019-03-24T01:02:40.162Z,7.80
2019-03-24T01:05:39.911Z,7.70
2019-03-24T01:12:15.031Z,7.60
2019-03-24T01:15:14.923Z,7.70
2019-03-24T01:21:28.899Z,7.50
2019-03-24T01:28:02.651Z,7.40
2019-03-24T01:31:02.500Z,7.40
2019-03-24T01:37:26.515Z,7.40
2019-03-24T01:49:52.321Z,7.10
2019-03-24T01:53:01.514Z,7.20
2019-03-24T01:56:01.611Z,7.20
2019-03-24T02:02:36.431Z,7.10
2019-03-24T02:05:37.532Z,7.10
2019-03-24T02:08:37.051Z,7.10
2019-03-24T02:17:58.646Z,7.00
2019-03-24T02:24:38.375Z,7.00
2019-03-24T02:31:33.389Z,6.90
2019-03-24T02:34:42.501Z,6.90
2019-03-24T02:37:42.618Z,6.90
2019-03-24T02:40:51.483Z,6.80
2019-03-24T02:46:52.495Z,6.70
2019-03-24T02:49:52.580Z,6.70
2019-03-24T02:53:01.618Z,6.70
2019-03-24T02:56:01.793Z,6.60
2019-03-24T02:59:10.845Z,6.60
2019-03-24T03:02:10.912Z,6.50
2019-03-24T03:08:40.235Z,6.50
2019-03-24T03:11:39.928Z,6.50
2019-03-24T03:18:12.573Z,6.30
2019-03-24T03:21:12.463Z,6.30
2019-03-24T03:24:21.511Z,6.20
2019-03-24T03:27:21.377Z,6.20
2019-03-24T03:30:30.391Z,6.10
2019-03-24T03:33:30.366Z,6.10
2019-03-24T03:36:39.404Z,6.10
2019-03-24T03:39:39.174Z,6.20
2019-03-24T03:49:10.603Z,6.00
2019-03-24T04:02:00.538Z,5.90
2019-03-24T04:05:01.720Z,5.80
2019-03-24T04:08:02.873Z,5.80
2019-03-24T04:11:04.153Z,5.80
2019-03-24T04:14:05.471Z,5.70
2019-03-24T04:17:12.762Z,5.70
2019-03-24T04:20:14.557Z,5.70
2019-03-24T04:26:21.628Z,5.70
2019-03-24T04:29:30.928Z,5.70
2019-03-24T04:32:30.480Z,5.70
2019-03-24T04:35:39.324Z,5.60
2019-03-24T04:38:40.453Z,5.70
2019-03-24T04:41:41.246Z,5.80
2019-03-24T04:44:40.811Z,5.80
2019-03-24T04:50:56.027Z,5.70
2019-03-24T04:53:46.275Z,5.80
2019-03-24T04:56:46.135Z,5.80
2019-03-24T04:59:55.322Z,5.70
2019-03-24T05:02:55.506Z,5.70
2019-03-24T05:06:14.712Z,5.80
2019-03-24T05:12:10.101Z,5.80
2019-03-24T05:15:00.219Z,5.80
2019-03-24T05:21:30.052Z,6.00
2019-03-24T05:24:31.395Z,6.00
2019-03-24T05:27:31.155Z,6.00
2019-03-24T05:30:40.135Z,6.10
2019-03-24T05:33:41.139Z,6.10
2019-03-24T05:36:41.513Z,6.10
2019-03-24T05:39:41.199Z,6.00
2019-03-24T05:46:10.979Z,5.90
2019-03-24T05:52:17.397Z,5.90
2019-03-24T05:55:36.494Z,5.90
2019-03-24T05:58:45.338Z,6.00
2019-03-24T06:01:45.188Z,6.10
2019-03-24T06:07:59.099Z,6.20
2019-03-24T06:14:33.210Z,6.50
2019-03-24T06:17:32.511Z,6.70
2019-03-24T06:23:47.243Z,7.10
2019-03-24T06:26:56.351Z,7.30
2019-03-24T06:29:56.471Z,7.60
2019-03-24T06:33:05.491Z,7.80
2019-03-24T06:36:06.891Z,8.10
2019-03-24T06:39:07.141Z,8.30
2019-03-24T06:45:28.419Z,8.60
2019-03-24T06:48:23.699Z,8.80
2019-03-24T06:54:37.902Z,9.20
2019-03-24T06:57:46.911Z,9.50
2019-03-24T07:00:48.272Z,9.70
2019-03-24T07:03:49.847Z,10.10
2019-03-24T07:06:49.368Z,10.40
2019-03-24T07:13:04.261Z,10.90
2019-03-24T07:19:46.416Z,11.40
2019-03-24T07:26:15.299Z,11.90
2019-03-24T07:29:15.311Z,12.10
2019-03-24T07:32:16.222Z,12.40
2019-03-24T07:35:15.750Z,12.50
2019-03-24T07:38:24.723Z,12.70
2019-03-24T07:41:25.703Z,12.80
2019-03-24T07:44:26.915Z,12.90
2019-03-24T07:47:27.901Z,13.10
2019-03-24T07:50:28.123Z,13.40
2019-03-24T07:57:02.999Z,13.50
2019-03-24T08:00:05.787Z,13.80
2019-03-24T08:06:21.672Z,14.40
2019-03-24T08:09:22.967Z,14.90
2019-03-24T08:12:23.289Z,15.00
2019-03-24T08:15:23.243Z,15.50
2019-03-24T08:18:32.399Z,15.70
2019-03-24T08:21:22.293Z,15.70
2019-03-24T08:31:12.161Z,16.00
2019-03-24T08:34:13.295Z,16.00
2019-03-24T08:37:03.516Z,16.50
2019-03-24T08:40:12.554Z,16.60
2019-03-24T08:43:21.493Z,17.10
2019-03-24T08:46:21.379Z,17.40
2019-03-24T08:49:11.328Z,17.50
2019-03-24T08:52:11.436Z,17.40
2019-03-24T08:58:44.572Z,17.90
2019-03-24T09:01:45.863Z,18.20
2019-03-24T09:04:47.088Z,18.70
2019-03-24T09:07:48.326Z,18.40
2019-03-24T09:10:48.312Z,18.60
2019-03-24T09:13:57.451Z,19.10
2019-03-24T09:20:15.855Z,20.00
2019-03-24T09:23:23.877Z,19.90
2019-03-24T09:33:08.284Z,21.30
2019-03-24T09:35:59.496Z,21.80
2019-03-24T09:38:49.598Z,21.70
2019-03-24T09:45:13.210Z,21.50
2019-03-24T09:48:13.239Z,21.30
2019-03-24T09:51:22.352Z,20.80
2019-03-24T09:54:23.599Z,21.00
2019-03-24T10:00:29.860Z,21.00
2019-03-24T10:03:39.103Z,21.30
2019-03-24T10:06:38.839Z,21.30
2019-03-24T10:12:55.060Z,21.30
2019-03-24T10:19:28.589Z,22.40
2019-03-24T10:22:29.820Z,22.30
2019-03-24T10:25:20.185Z,23.60
2019-03-24T10:31:54.084Z,23.90
2019-03-24T10:34:56.487Z,23.90
2019-03-24T10:37:56.259Z,22.90
2019-03-24T10:44:04.655Z,24.30
2019-03-24T10:47:13.900Z,24.40
2019-03-24T10:50:14.517Z,25.10
2019-03-24T10:53:23.707Z,25.00
2019-03-24T10:56:23.858Z,24.00
2019-03-24T11:02:37.776Z,22.80
2019-03-24T11:09:08.243Z,23.20
2019-03-24T11:12:08.434Z,23.80
2019-03-24T11:15:17.435Z,24.10
2019-03-24T11:18:07.664Z,22.80
2019-03-24T11:20:57.859Z,22.70
2019-03-24T11:23:58.106Z,22.80
2019-03-24T11:33:25.811Z,24.40
2019-03-24T11:36:27.067Z,24.70
2019-03-24T11:39:27.571Z,24.50
2019-03-24T11:46:10.461Z,23.60
2019-03-24T11:49:19.552Z,24.60
2019-03-24T11:52:28.803Z,24.80
2019-03-24T11:55:28.919Z,25.90
2019-03-24T12:04:50.332Z,26.90
2019-03-24T12:18:00.834Z,25.40
2019-03-24T12:21:00.941Z,25.20
2019-03-24T12:27:35.199Z,24.40
2019-03-24T12:30:36.195Z,23.20
2019-03-24T12:36:43.458Z,26.00
2019-03-24T12:39:44.001Z,26.10
2019-03-24T12:42:45.077Z,26.00
2019-03-24T12:45:44.689Z,24.90
2019-03-24T12:52:05.831Z,21.60
2019-03-24T12:55:07.046Z,21.60
2019-03-24T12:58:07.306Z,22.00
2019-03-24T13:01:16.340Z,20.90
2019-03-24T13:07:44.275Z,20.30
2019-03-24T13:10:45.384Z,22.30
2019-03-24T13:13:46.901Z,22.20
2019-03-24T13:16:47.504Z,21.40
2019-03-24T13:19:37.775Z,20.90
2019-03-24T13:32:50.699Z,22.50
2019-03-24T13:39:10.403Z,20.50
2019-03-24T13:45:44.093Z,19.50
2019-03-24T13:48:43.639Z,20.10
2019-03-24T13:55:24.451Z,17.80
2019-03-24T13:58:24.235Z,19.00
2019-03-24T14:11:05.520Z,23.90
2019-03-24T14:14:06.863Z,23.10
2019-03-24T14:17:06.988Z,20.90
2019-03-24T14:26:30.929Z,18.80
2019-03-24T14:29:31.989Z,18.60
2019-03-24T14:32:33.407Z,18.40
2019-03-24T14:35:23.976Z,18.70
2019-03-24T14:42:02.025Z,19.40
2019-03-24T14:44:52.208Z,18.80
2019-03-24T14:47:55.967Z,18.20
2019-03-24T14:50:54.426Z,18.40
2019-03-24T14:53:49.143Z,18.10
2019-03-24T14:56:52.128Z,18.00
2019-03-24T14:59:52.383Z,17.80
2019-03-24T15:06:26.927Z,17.40
2019-03-24T15:12:42.619Z,16.60
2019-03-24T15:15:43.903Z,16.30
2019-03-24T15:18:46.290Z,16.00
2019-03-24T15:21:48.425Z,16.00
2019-03-24T15:24:50.242Z,15.80
2019-03-24T15:27:51.741Z,16.00
2019-03-24T15:31:02.422Z,15.90
2019-03-24T15:34:18.957Z,15.60
2019-03-24T15:37:33.596Z,15.30
2019-03-24T15:43:43.685Z,15.10
2019-03-24T15:46:43.937Z,15.00
2019-03-24T15:53:13.597Z,14.90
2019-03-24T15:56:13.935Z,14.90
2019-03-24T16:02:30.364Z,14.50
2019-03-24T16:05:46.392Z,14.60
2019-03-24T16:08:47.702Z,14.60
2019-03-24T16:20:40.060Z,14.30
2019-03-24T16:23:41.308Z,14.10
2019-03-24T16:26:42.548Z,14.10
2019-03-24T16:29:43.626Z,14.10
2019-03-24T16:32:44.751Z,14.10
2019-03-24T16:35:44.779Z,14.00
2019-03-24T16:39:03.405Z,13.90
2019-03-24T16:41:58.842Z,13.80
2019-03-24T16:45:04.804Z,13.70
2019-03-24T16:51:12.279Z,13.30
2019-03-24T16:54:21.378Z,13.30
2019-03-24T16:57:21.247Z,13.20
2019-03-24T17:03:44.860Z,13.00
2019-03-24T17:06:44.367Z,12.80
2019-03-24T17:13:19.035Z,12.70
2019-03-24T17:16:20.075Z,12.60
2019-03-24T17:22:17.550Z,12.50
2019-03-24T17:28:35.096Z,12.40
2019-03-24T17:31:25.130Z,12.40
2019-03-24T17:34:34.164Z,12.30
2019-03-24T17:37:35.479Z,12.20
2019-03-24T17:40:39.048Z,12.30
2019-03-24T17:43:38.803Z,12.20
2019-03-24T17:46:40.083Z,12.10
2019-03-24T17:49:47.449Z,12.10
2019-03-24T17:52:48.691Z,12.10
2019-03-24T17:55:50.402Z,12.00
2019-03-24T17:58:50.716Z,11.90
2019-03-24T18:01:59.771Z,11.90
2019-03-24T18:11:09.044Z,11.70
2019-03-24T18:14:09.354Z,11.70
2019-03-24T18:17:18.408Z,11.70
2019-03-24T18:30:18.971Z,11.70
2019-03-24T18:33:09.166Z,11.70
2019-03-24T18:36:10.294Z,11.70
2019-03-24T18:39:10.914Z,11.70
2019-03-24T18:45:28.105Z,11.80
2019-03-24T18:48:27.727Z,11.80
2019-03-24T18:55:10.714Z,11.80
2019-03-24T18:58:12.123Z,11.80
2019-03-24T19:04:02.527Z,11.80
2019-03-24T19:07:03.892Z,11.80
2019-03-24T19:10:06.107Z,11.80
2019-03-24T19:13:08.941Z,11.80
2019-03-24T19:16:10.664Z,11.80
2019-03-24T19:28:39.544Z,11.70
2019-03-24T19:31:59.871Z,11.70
2019-03-24T19:35:00.380Z,11.60
2019-03-24T19:38:01.697Z,11.60
2019-03-24T19:41:03.163Z,11.50
2019-03-24T19:44:04.638Z,11.50
2019-03-24T19:47:06.559Z,11.30
2019-03-24T19:49:56.706Z,11.40
2019-03-24T19:59:46.723Z,11.40
2019-03-24T20:02:48.048Z,11.40
2019-03-24T20:05:48.154Z,11.40
2019-03-24T20:08:57.164Z,11.40
2019-03-24T20:11:57.564Z,11.40
2019-03-24T20:18:33.507Z,11.30
2019-03-24T20:28:46.878Z,11.30
2019-03-24T20:31:36.771Z,11.30
2019-03-24T20:34:39.839Z,11.30
2019-03-24T20:41:16.579Z,11.20
2019-03-24T20:47:35.911Z,11.20
2019-03-24T20:53:43.697Z,11.10
2019-03-24T21:00:11.500Z,11.00
2019-03-24T21:03:11.677Z,10.90
2019-03-24T21:09:28.959Z,10.80
2019-03-24T21:15:43.416Z,10.70
2019-03-24T21:18:52.495Z,10.70
2019-03-24T21:21:53.799Z,10.70
2019-03-24T21:24:54.953Z,10.70
2019-03-24T21:31:01.911Z,10.60
2019-03-24T21:34:11.085Z,10.60
2019-03-24T21:37:12.904Z,10.50
2019-03-24T21:40:02.968Z,10.50
2019-03-24T21:43:02.997Z,10.50
2019-03-24T21:46:04.038Z,10.50
2019-03-24T21:49:04.078Z,10.40
2019-03-24T22:01:59.170Z,10.60
2019-03-24T22:05:00.461Z,10.60
2019-03-24T22:08:00.392Z,10.50
2019-03-24T22:11:09.508Z,10.50
2019-03-24T22:14:09.717Z,10.40
2019-03-24T22:27:33.176Z,10.30
2019-03-24T22:33:39.825Z,10.40
2019-03-24T22:36:48.779Z,10.40
2019-03-24T22:39:49.888Z,10.40
2019-03-24T22:42:55.607Z,10.30
2019-03-24T22:45:55.531Z,10.30
2019-03-24T22:48:56.381Z,10.30
2019-03-24T22:52:06.590Z,10.30
2019-03-24T22:58:32.118Z,10.20
2019-03-24T23:05:06.566Z,10.20
2019-03-24T23:08:07.573Z,9.90
2019-03-24T23:11:07.860Z,9.80
2019-03-24T23:20:41.877Z,9.80
2019-03-24T23:27:21.177Z,9.70
2019-03-24T23:30:30.265Z,9.70
2019-03-24T23:33:37.511Z,9.70
2019-03-24T23:36:37.931Z,9.60
2019-03-24T23:39:37.475Z,9.60
2019-03-24T23:42:38.587Z,9.50
2019-03-24T23:45:39.851Z,9.50
2019-03-24T23:48:39.988Z,9.50
2019-03-24T23:54:58.677Z,9.40
2019-03-24T23:57:59.786Z,9.30
